Portales, New Mexico
Current Conditions -  °F | °C
As of 8:58 PM on Saturday 25 Oct 2014 (Local Time) from KCVS Reporting Station
Clear Clear  
Wind Chill: 61°   Ceiling: Unl
Heat Index: 61°   Visibility: 10mi
Dew Point: 41°   Wind: 8mph
Humidity: 48%   Direction: 230°SW
Pressure: 30.13"   Gusts: NA
Location:  34.18°N, 103.33°W
Report Text: KCVS 260258Z AUTO 23007KT 10SM CLR 16/05 A3013 RMK AO2 SLP162 53003
Loading
Personal Weather Stations






























Interactive Weather Map
Tropical Storm Tracking
New forecast layout! Learn more

10-Day Weather Forecast

Advertisements
Track Severe Weather on mobile